Time;durP1;ratioP1;P1;durP2;ratioP2;P2;SDS_P1;SDS_P2;PMS_P1;PMS_P2;Temp;Humidity;BMP_temperature;BMP_pressure;BME280_temperature;BME280_humidity;BME280_pressure;Samples;Min_cycle;Max_cycle;Signal;HPM_P1;HPM_P2
2021/07/23 00:01:34;;;;;;;18.48;9.98;;;;;;;17.45;64.94;102075.81;4792843;29;20149;-39
2021/07/23 00:04:00;;;;;;;24.55;9.13;;;;;;;17.45;64.59;102073.16;4785638;29;20491;-39
2021/07/23 00:06:31;;;;;;;22.67;10.15;;;;;;;17.43;65.01;102072.50;4791602;29;20870;-39
2021/07/23 00:09:01;;;;;;;20.65;9.63;;;;;;;17.35;65.11;102068.00;4791424;29;20628;-39
2021/07/23 00:11:27;;;;;;;19.73;9.88;;;;;;;17.29;65.58;102066.81;4798696;29;20127;-39
2021/07/23 00:13:54;;;;;;;20.13;10.35;;;;;;;17.28;65.28;102065.13;4790513;29;20090;-39
2021/07/23 00:16:21;;;;;;;18.30;10.48;;;;;;;17.27;65.76;102063.50;4791791;29;20682;-39
2021/07/23 00:18:47;;;;;;;21.45;9.63;;;;;;;17.24;65.51;102060.31;4797186;29;20180;-38
2021/07/23 00:21:13;;;;;;;22.20;9.40;;;;;;;17.21;66.31;102066.78;4790857;29;20063;-38
2021/07/23 00:23:40;;;;;;;23.40;9.65;;;;;;;17.22;65.89;102068.44;4797310;29;20097;-38
2021/07/23 00:26:11;;;;;;;19.75;10.75;;;;;;;17.19;66.03;102064.28;4791844;29;20146;-38
2021/07/23 00:28:37;;;;;;;19.15;10.05;;;;;;;17.16;65.73;102063.78;4794537;29;20090;-38
2021/07/23 00:31:04;;;;;;;20.35;10.95;;;;;;;17.13;66.09;102058.78;4786910;29;20055;-38
2021/07/23 00:33:30;;;;;;;18.90;9.68;;;;;;;17.15;66.09;102065.59;4798844;29;20105;-38
2021/07/23 00:35:57;;;;;;;24.83;10.85;;;;;;;17.12;66.57;102065.09;4796049;29;20058;-38
2021/07/23 00:38:24;;;;;;;23.30;10.05;;;;;;;17.10;66.05;102061.75;4791753;29;20154;-38
2021/07/23 00:40:50;;;;;;;18.48;9.90;;;;;;;17.09;66.22;102054.78;4793740;29;20142;-38
2021/07/23 00:43:17;;;;;;;22.38;10.45;;;;;;;17.02;66.89;102059.91;4780883;29;20149;-38
2021/07/23 00:45:43;;;;;;;22.88;10.32;;;;;;;17.00;66.75;102056.59;4789163;29;20058;-38
2021/07/23 00:48:10;;;;;;;23.90;11.85;;;;;;;16.97;66.65;102049.78;4787973;29;20496;-38
2021/07/23 00:50:36;;;;;;;22.70;10.73;;;;;;;16.91;67.38;102045.09;4780865;29;20083;-38
2021/07/23 00:53:04;;;;;;;21.77;10.27;;;;;;;16.89;66.94;102046.25;4778335;29;20141;-38
2021/07/23 00:55:31;;;;;;;26.38;10.95;;;;;;;16.86;67.47;102047.41;4786168;29;20097;-39
2021/07/23 00:57:59;;;;;;;23.05;9.88;;;;;;;16.83;67.49;102049.53;4794650;29;20179;-39
2021/07/23 01:00:26;;;;;;;21.73;9.65;;;;;;;16.80;67.98;102043.53;4779914;29;20130;-39
2021/07/23 01:02:52;;;;;;;24.85;10.50;;;;;;;16.76;67.19;102044.84;4797374;29;20198;-39
2021/07/23 01:05:19;;;;;;;24.35;11.15;;;;;;;16.69;67.82;102049.09;4791418;29;20059;-38
2021/07/23 01:07:46;;;;;;;26.92;10.75;;;;;;;16.69;67.84;102050.91;4798340;29;20123;-38
2021/07/23 01:10:13;;;;;;;22.15;10.85;;;;;;;16.65;67.57;102045.09;4789223;29;20157;-38
2021/07/23 01:12:39;;;;;;;21.42;10.68;;;;;;;16.60;68.34;102045.59;4797298;29;20112;-38
2021/07/23 01:15:06;;;;;;;22.83;9.65;;;;;;;16.58;67.94;102044.91;4800675;29;20138;-38
2021/07/23 01:17:33;;;;;;;25.88;11.20;;;;;;;16.57;68.08;102055.66;4795168;29;20158;-38
2021/07/23 01:20:23;;;;;;;24.60;11.18;;;;;;;16.54;68.59;102046.22;4799676;29;20142;-38
2021/07/23 01:22:49;;;;;;;23.50;10.38;;;;;;;16.53;68.70;102049.81;4790202;29;20137;-36
2021/07/23 01:25:18;;;;;;;25.13;10.02;;;;;;;16.48;68.87;102052.09;4798584;29;20145;-36
2021/07/23 01:27:51;;;;;;;23.05;10.60;;;;;;;16.48;68.30;102048.63;4793867;29;20127;-38
2021/07/23 01:30:20;;;;;;;22.90;10.02;;;;;;;16.46;69.04;102040.00;4800652;29;20054;-38
2021/07/23 01:32:47;;;;;;;24.15;10.57;;;;;;;16.42;68.78;102050.06;4795534;29;20065;-38
2021/07/23 01:35:14;;;;;;;23.90;10.43;;;;;;;16.39;69.12;102050.41;4796777;29;20532;-38
2021/07/23 01:37:42;;;;;;;24.35;10.50;;;;;;;16.35;69.19;102044.59;4803880;29;20149;-38
2021/07/23 01:40:08;;;;;;;43.28;10.93;;;;;;;16.31;69.30;102055.66;4795587;29;20146;-38
2021/07/23 01:42:36;;;;;;;25.00;10.98;;;;;;;16.27;69.50;102039.22;4800454;29;20158;-38
2021/07/23 01:45:04;;;;;;;24.40;10.83;;;;;;;16.22;69.79;102049.44;4794224;29;20058;-38
2021/07/23 01:47:30;;;;;;;26.50;11.40;;;;;;;16.12;70.48;102054.81;4793763;29;20062;-38
2021/07/23 01:49:57;;;;;;;24.45;10.52;;;;;;;16.08;70.10;102045.53;4790897;29;20115;-38
2021/07/23 01:52:23;;;;;;;19.40;10.25;;;;;;;16.04;70.41;102041.53;4796277;29;20145;-38
2021/07/23 01:54:50;;;;;;;22.30;10.85;;;;;;;15.98;70.78;102044.78;4801464;29;20055;-38
2021/07/23 01:57:16;;;;;;;22.60;10.25;;;;;;;15.94;70.29;102041.59;4795071;29;20153;-38
2021/07/23 01:59:43;;;;;;;26.33;11.15;;;;;;;15.88;71.86;102042.22;4801083;29;20101;-38
2021/07/23 02:02:10;;;;;;;30.08;11.15;;;;;;;15.91;70.96;102041.91;4793871;29;20153;-38
2021/07/23 02:04:37;;;;;;;24.52;11.85;;;;;;;15.90;70.92;102036.78;4794233;29;20065;-38
2021/07/23 02:07:03;;;;;;;29.95;11.38;;;;;;;15.91;70.91;102043.72;4793429;29;20063;-38
2021/07/23 02:09:30;;;;;;;26.88;10.68;;;;;;;15.89;70.59;102038.56;4800657;29;20138;-38
2021/07/23 02:11:56;;;;;;;28.30;11.02;;;;;;;15.85;71.19;102037.22;4799076;29;20526;-38
2021/07/23 02:14:24;;;;;;;25.02;11.10;;;;;;;15.84;70.77;102032.94;4793943;29;20146;-37
2021/07/23 02:16:51;;;;;;;25.95;10.95;;;;;;;15.77;71.22;102032.69;4795960;29;20594;-37
2021/07/23 02:19:17;;;;;;;27.08;11.07;;;;;;;15.74;71.04;102035.66;4789238;29;20054;-37
2021/07/23 02:21:44;;;;;;;25.23;11.68;;;;;;;15.70;71.29;102030.75;4798726;29;20086;-37
2021/07/23 02:24:10;;;;;;;26.50;10.77;;;;;;;15.66;71.87;102027.59;4791891;29;20102;-37
2021/07/23 02:26:37;;;;;;;26.55;11.25;;;;;;;15.64;71.79;102026.88;4799739;29;20151;-37
2021/07/23 02:29:03;;;;;;;24.35;11.27;;;;;;;15.59;71.93;102022.06;4797160;29;20097;-37
2021/07/23 02:31:30;;;;;;;28.08;10.40;;;;;;;15.60;71.54;102022.88;4786993;29;20914;-37
2021/07/23 02:33:56;;;;;;;23.35;11.07;;;;;;;15.56;71.75;102021.53;4799606;29;20058;-37
2021/07/23 02:36:23;;;;;;;26.65;10.88;;;;;;;15.51;71.97;102022.00;4798048;29;20084;-37
2021/07/23 02:38:49;;;;;;;24.35;11.65;;;;;;;15.45;71.95;102019.94;4818155;29;20137;-37
2021/07/23 02:41:19;;;;;;;28.35;11.15;;;;;;;15.45;71.92;102019.94;4811885;29;20149;-37
2021/07/23 02:43:48;;;;;;;28.45;11.75;;;;;;;15.41;72.54;102022.06;4798811;29;20058;-37
2021/07/23 02:46:15;;;;;;;27.58;11.98;;;;;;;15.38;72.71;102021.50;4792907;29;20054;-37
2021/07/23 02:48:42;;;;;;;29.23;12.32;;;;;;;15.30;73.40;102027.53;4795659;29;20086;-38
2021/07/23 02:51:10;;;;;;;26.20;11.63;;;;;;;15.32;72.74;102030.03;4785639;29;20155;-38
2021/07/23 02:53:36;;;;;;;30.27;12.00;;;;;;;15.29;73.14;102023.25;4781729;29;20138;-38
2021/07/23 02:56:02;;;;;;;23.20;11.40;;;;;;;15.26;73.60;102026.16;4797269;29;20178;-38
2021/07/23 02:58:29;;;;;;;26.92;12.52;;;;;;;15.22;73.52;102020.34;4775739;29;20186;-38
2021/07/23 03:00:55;;;;;;;30.48;11.70;;;;;;;15.21;73.86;102020.47;4796455;29;20062;-38
2021/07/23 03:03:22;;;;;;;25.80;11.73;;;;;;;15.18;73.49;102018.97;4793646;29;20063;-38
2021/07/23 03:05:49;;;;;;;24.77;12.00;;;;;;;15.16;74.21;102018.28;4799670;29;20123;-38
2021/07/23 03:08:15;;;;;;;28.85;11.30;;;;;;;15.18;74.17;102020.78;4799904;29;20096;-38
2021/07/23 03:10:42;;;;;;;28.27;11.50;;;;;;;15.14;73.51;102016.78;4790380;29;20474;-38
2021/07/23 03:13:08;;;;;;;25.33;12.10;;;;;;;15.16;73.75;102026.22;4794965;29;20081;-38
2021/07/23 03:15:34;;;;;;;24.77;11.85;;;;;;;15.14;73.70;102012.31;4793279;29;20178;-38
2021/07/23 03:18:01;;;;;;;26.48;11.70;;;;;;;15.13;73.75;102009.81;4799631;29;20059;-38
2021/07/23 03:20:28;;;;;;;25.92;10.73;;;;;;;15.11;72.87;102001.22;4793346;29;20142;-38
2021/07/23 03:22:54;;;;;;;22.77;11.57;;;;;;;15.12;73.04;102006.34;4799010;29;20201;-38
2021/07/23 03:25:20;;;;;;;28.00;11.88;;;;;;;15.09;73.56;102001.34;4794922;29;20146;-38
2021/07/23 03:27:47;;;;;;;25.30;10.73;;;;;;;15.07;73.75;101992.75;4790767;29;20149;-38
2021/07/23 03:30:13;;;;;;;25.73;10.48;;;;;;;15.08;73.15;101996.25;4797872;29;20747;-38
2021/07/23 03:32:40;;;;;;;19.45;10.35;;;;;;;15.07;73.03;101997.19;4792968;29;20141;-38
2021/07/23 03:35:07;;;;;;;23.67;10.40;;;;;;;15.05;73.22;101999.16;4798905;29;20137;-37
2021/07/23 03:37:33;;;;;;;21.52;11.07;;;;;;;14.99;73.51;101990.88;4800936;29;20145;-37
2021/07/23 03:40:00;;;;;;;23.35;10.15;;;;;;;15.01;73.64;101996.84;4794923;29;20061;-37
2021/07/23 03:42:27;;;;;;;23.55;10.50;;;;;;;14.99;73.25;101996.16;4798864;29;20058;-37
2021/07/23 03:44:53;;;;;;;25.88;11.07;;;;;;;14.96;73.69;101993.78;4793206;29;20150;-37
2021/07/23 03:47:20;;;;;;;26.42;10.57;;;;;;;14.93;73.90;101988.78;4799612;29;20097;-37
2021/07/23 03:49:47;;;;;;;23.67;10.43;;;;;;;14.93;74.29;101991.41;4792247;29;20051;-37
2021/07/23 03:52:13;;;;;;;26.65;11.77;;;;;;;14.90;73.78;101985.63;4791690;29;20105;-37
2021/07/23 03:54:39;;;;;;;27.05;12.02;;;;;;;14.94;73.49;101981.72;4790778;29;20149;-37
2021/07/23 03:57:06;;;;;;;21.70;10.48;;;;;;;14.95;73.59;101988.63;4798497;29;20094;-37
2021/07/23 03:59:33;;;;;;;24.63;11.48;;;;;;;14.95;74.22;101988.63;4798639;29;20098;-37
2021/07/23 04:02:00;;;;;;;24.85;11.40;;;;;;;14.92;74.28;101983.66;4790844;29;20054;-37
2021/07/23 04:04:27;;;;;;;27.25;11.70;;;;;;;14.88;75.27;101985.75;4794810;29;20595;-37
2021/07/23 04:06:55;;;;;;;23.65;10.80;;;;;;;14.87;74.75;101978.81;4788542;29;20141;-37
2021/07/23 04:09:22;;;;;;;28.10;11.25;;;;;;;14.90;74.34;101982.97;4798533;29;20094;-37
2021/07/23 04:11:50;;;;;;;30.02;11.27;;;;;;;14.90;74.43;101986.44;4792047;29;20194;-37
2021/07/23 04:14:17;;;;;;;25.42;10.43;;;;;;;14.92;74.31;101979.22;4798736;29;20090;-37
2021/07/23 04:16:44;;;;;;;24.45;11.15;;;;;;;14.95;73.69;101978.06;4794483;29;20054;-37
2021/07/23 04:19:11;;;;;;;27.58;10.57;;;;;;;14.96;73.42;101977.09;4781360;29;20079;-37
2021/07/23 04:21:38;;;;;;;24.42;11.35;;;;;;;14.95;74.16;101980.72;4795156;29;20154;-38
2021/07/23 04:24:05;;;;;;;23.85;11.23;;;;;;;14.93;74.73;101980.03;4808814;29;20408;-38
2021/07/23 04:26:33;;;;;;;24.60;11.88;;;;;;;14.93;75.26;101980.03;4816603;29;20152;-38
2021/07/23 04:29:00;;;;;;;23.53;10.57;;;;;;;14.91;75.85;101982.81;4794199;29;20112;-38
2021/07/23 04:31:27;;;;;;;30.95;11.77;;;;;;;14.94;75.41;101979.06;4796354;29;20054;-38
2021/07/23 04:34:00;;;;;;;26.13;10.80;;;;;;;14.97;75.74;101987.50;4786449;29;20125;-38
2021/07/23 04:36:27;;;;;;;22.60;11.15;;;;;;;15.00;75.36;101986.41;4800992;29;20146;-38
2021/07/23 04:38:54;;;;;;;27.23;11.57;;;;;;;15.02;74.85;101992.38;4814031;29;20050;-38
2021/07/23 04:41:21;;;;;;;22.55;10.77;;;;;;;15.07;74.22;101981.34;4809129;29;20143;-38
2021/07/23 04:43:48;;;;;;;28.40;11.00;;;;;;;15.06;75.65;101983.16;4802087;29;20054;-38
2021/07/23 04:46:14;;;;;;;26.08;11.43;;;;;;;15.06;75.60;101985.81;4791772;29;20842;-38
2021/07/23 04:48:41;;;;;;;26.10;10.70;;;;;;;15.09;75.25;101988.13;4794661;29;20055;-38
2021/07/23 04:51:07;;;;;;;27.73;11.10;;;;;;;15.13;75.78;101986.03;4789137;29;20142;-38
2021/07/23 04:53:34;;;;;;;26.88;11.98;;;;;;;15.15;76.06;101995.50;4801664;29;20154;-38
2021/07/23 04:56:04;;;;;;;23.40;10.57;;;;;;;15.20;75.32;101989.75;4797350;29;20116;-38
2021/07/23 04:58:30;;;;;;;27.67;11.38;;;;;;;15.26;74.83;101981.22;4790282;29;20149;-38
2021/07/23 05:00:57;;;;;;;24.27;11.57;;;;;;;15.32;75.07;101985.91;4800353;29;20560;-38
2021/07/23 05:03:33;;;;;;;24.27;10.77;;;;;;;15.34;74.75;101991.88;4797722;29;20086;-38
2021/07/23 05:06:00;;;;;;;22.27;10.60;;;;;;;15.35;74.81;101993.56;4800817;29;20059;-38
2021/07/23 05:08:27;;;;;;;25.10;11.10;;;;;;;15.42;74.82;101991.16;4795988;29;20507;-38
2021/07/23 05:10:54;;;;;;;26.65;11.25;;;;;;;15.47;74.55;101985.44;4801185;29;20526;-38
2021/07/23 05:13:21;;;;;;;25.60;11.07;;;;;;;15.48;74.53;101982.59;4792155;29;20074;-38
2021/07/23 05:15:48;;;;;;;24.00;11.25;;;;;;;15.53;74.34;101980.34;4790046;29;20058;-38
2021/07/23 05:18:15;;;;;;;20.85;10.55;;;;;;;15.61;74.24;101979.59;4808401;29;20109;-38
2021/07/23 05:20:43;;;;;;;22.87;10.17;;;;;;;15.65;74.37;101980.97;4795748;29;20157;-38
2021/07/23 05:23:10;;;;;;;25.00;11.13;;;;;;;15.73;73.85;101977.59;4800700;29;20502;-38
2021/07/23 05:25:38;;;;;;;24.98;10.48;;;;;;;15.76;74.50;101974.66;4795462;29;20061;-38
2021/07/23 05:28:04;;;;;;;25.58;11.40;;;;;;;15.80;74.45;101968.91;4794519;29;20094;-38
2021/07/23 05:30:31;;;;;;;23.08;10.90;;;;;;;15.80;74.14;101968.91;4794417;29;20164;-38
2021/07/23 05:32:57;;;;;;;23.73;10.90;;;;;;;15.85;75.00;101971.06;4800388;29;20145;-38
2021/07/23 05:35:23;;;;;;;22.67;10.63;;;;;;;15.88;74.77;101972.59;4801181;29;20082;-38
2021/07/23 05:37:50;;;;;;;18.30;9.43;;;;;;;15.94;74.29;101966.69;4799309;29;20119;-38
2021/07/23 05:40:17;;;;;;;15.70;9.27;;;;;;;15.99;73.94;101961.75;4797890;29;20145;-38
2021/07/23 05:42:43;;;;;;;18.92;8.70;;;;;;;16.02;73.97;101962.28;4791048;29;20694;-38
2021/07/23 05:45:10;;;;;;;18.73;8.63;;;;;;;16.08;73.40;101971.41;4800880;29;20073;-38
2021/07/23 05:47:37;;;;;;;19.98;9.02;;;;;;;16.11;73.58;101962.34;4794894;29;20141;-38
2021/07/23 05:50:04;;;;;;;20.50;8.68;;;;;;;16.15;73.16;101963.69;4797037;29;20450;-38
2021/07/23 05:52:30;;;;;;;17.10;8.23;;;;;;;16.17;73.22;101961.72;4797288;29;20174;-38
2021/07/23 05:54:57;;;;;;;16.90;7.50;;;;;;;16.20;72.36;101962.22;4784171;29;20130;-38
2021/07/23 05:57:23;;;;;;;17.15;7.28;;;;;;;16.27;72.65;101964.25;4795304;29;20087;-38
2021/07/23 05:59:50;;;;;;;22.65;8.82;;;;;;;16.33;73.14;101968.94;4795386;29;20463;-38
2021/07/23 06:02:16;;;;;;;14.93;7.45;;;;;;;16.38;72.99;101970.13;4797483;29;20171;-38
2021/07/23 06:04:43;;;;;;;17.48;7.68;;;;;;;16.44;72.05;101966.00;4792817;29;20157;-38
2021/07/23 06:07:09;;;;;;;24.48;10.00;;;;;;;16.48;72.54;101967.34;4783267;29;20075;-38
2021/07/23 06:09:36;;;;;;;18.95;8.02;;;;;;;16.54;71.64;101965.91;4797058;29;20065;-38
2021/07/23 06:12:02;;;;;;;16.15;7.20;;;;;;;16.59;71.33;101972.38;4790641;29;20694;-38
2021/07/23 06:14:29;;;;;;;13.00;7.30;;;;;;;16.60;71.13;101974.06;4800996;29;20214;-38
2021/07/23 06:16:55;;;;;;;17.33;6.93;;;;;;;16.65;70.86;101970.94;4794766;29;20867;-38
2021/07/23 06:19:22;;;;;;;31.92;8.23;;;;;;;16.67;71.08;101971.59;4801195;29;20062;-38
2021/07/23 06:21:49;;;;;;;26.40;7.78;;;;;;;16.72;71.06;101971.09;4789624;29;20082;-38
2021/07/23 06:24:15;;;;;;;21.52;7.18;;;;;;;16.73;69.84;101970.97;4800952;29;20651;-38
2021/07/23 06:26:43;;;;;;;12.80;5.20;;;;;;;16.77;69.91;101966.19;4798877;29;20112;-38
2021/07/23 06:29:09;;;;;;;13.70;6.22;;;;;;;16.83;69.50;101968.22;4793662;29;20142;-38
2021/07/23 06:31:36;;;;;;;12.80;5.28;;;;;;;16.93;68.90;101968.91;4800305;29;20157;-38
2021/07/23 06:34:03;;;;;;;12.75;5.80;;;;;;;17.01;68.88;101970.75;4790039;29;20066;-38
2021/07/23 06:36:33;;;;;;;15.45;5.32;;;;;;;17.07;68.59;101969.28;4797173;29;20119;-39
2021/07/23 06:39:00;;;;;;;16.05;7.07;;;;;;;17.15;68.71;101972.81;4793210;29;20071;-39
2021/07/23 06:41:26;;;;;;;14.60;6.70;;;;;;;17.22;68.81;101972.16;4799077;29;20749;-39
2021/07/23 06:43:53;;;;;;;16.95;7.13;;;;;;;17.25;69.00;101970.03;4800003;29;20116;-39
2021/07/23 06:46:19;;;;;;;16.63;6.40;;;;;;;17.28;68.04;101961.72;4794397;29;20093;-39
2021/07/23 06:48:46;;;;;;;12.50;5.90;;;;;;;17.37;66.77;101957.28;4796256;29;20058;-39
2021/07/23 06:51:13;;;;;;;13.15;7.15;;;;;;;17.42;67.46;101962.09;4789828;29;20153;-39
2021/07/23 06:53:40;;;;;;;12.63;6.20;;;;;;;17.46;67.36;101958.09;4805322;29;20069;-39
2021/07/23 06:56:06;;;;;;;11.43;6.03;;;;;;;17.52;67.61;101960.09;4796758;29;20153;-39
2021/07/23 06:58:34;;;;;;;12.90;6.55;;;;;;;17.54;67.86;101960.75;4800568;29;20142;-39
2021/07/23 07:01:05;;;;;;;12.48;6.05;;;;;;;17.59;67.55;101964.59;4804243;29;20563;-39
2021/07/23 07:03:32;;;;;;;15.05;6.93;;;;;;;17.57;67.93;101957.78;4798426;29;20059;-39
2021/07/23 07:05:59;;;;;;;14.18;7.78;;;;;;;17.65;68.05;101959.63;4799721;29;20112;-40
2021/07/23 07:08:25;;;;;;;19.15;7.00;;;;;;;17.69;67.67;101959.13;4793628;29;20082;-39
2021/07/23 07:10:52;;;;;;;12.68;6.60;;;;;;;17.76;67.20;101968.09;4797533;29;20074;-39
2021/07/23 07:13:18;;;;;;;15.38;6.40;;;;;;;17.79;67.32;101965.06;4794079;29;20556;-39
2021/07/23 07:15:45;;;;;;;21.50;6.45;;;;;;;17.84;67.38;101966.44;4801528;29;20141;-39
2021/07/23 07:18:11;;;;;;;14.07;6.15;;;;;;;17.90;67.13;101971.09;4798615;29;20147;-39
2021/07/23 07:20:38;;;;;;;13.95;6.38;;;;;;;17.99;66.38;101967.41;4798742;29;20050;-38
2021/07/23 07:23:04;;;;;;;12.10;6.35;;;;;;;18.05;66.58;101972.06;4808122;29;20908;-38
2021/07/23 07:25:33;;;;;;;13.35;6.60;;;;;;;18.09;66.53;101970.75;4809220;29;20093;-38
2021/07/23 07:28:02;;;;;;;10.30;6.22;;;;;;;18.21;66.46;101970.38;4799828;29;20110;-39
2021/07/23 07:30:29;;;;;;;15.20;6.38;;;;;;;18.32;66.29;101970.03;4786780;29;20109;-39
2021/07/23 07:32:56;;;;;;;15.18;6.50;;;;;;;18.43;65.94;101966.19;4798485;29;20153;-39
2021/07/23 07:35:23;;;;;;;9.30;4.65;;;;;;;18.64;64.02;101973.59;4806745;29;20085;-39
2021/07/23 07:37:49;;;;;;;11.75;6.05;;;;;;;18.76;64.79;101965.09;4802487;29;20050;-39
2021/07/23 07:40:16;;;;;;;14.18;6.93;;;;;;;18.88;64.05;101965.56;4804563;29;20151;-39
2021/07/23 07:42:42;;;;;;;13.13;7.18;;;;;;;18.96;64.32;101962.84;4792074;29;20133;-39
2021/07/23 07:45:09;;;;;;;11.55;6.40;;;;;;;19.01;63.50;101962.31;4804124;29;20102;-38
2021/07/23 07:47:36;;;;;;;13.60;6.55;;;;;;;19.17;63.36;101964.91;4790578;29;20137;-39
2021/07/23 07:50:03;;;;;;;15.93;6.35;;;;;;;19.23;62.46;101966.03;4795366;29;20161;-40
2021/07/23 07:52:30;;;;;;;11.35;6.28;;;;;;;19.29;62.35;101961.84;4790023;29;20078;-39
2021/07/23 07:54:56;;;;;;;11.90;5.18;;;;;;;19.43;61.77;101962.91;4793201;29;20149;-38
2021/07/23 07:57:23;;;;;;;11.15;5.70;;;;;;;19.52;61.10;101962.69;4791801;29;20137;-38
2021/07/23 07:59:50;;;;;;;15.85;6.63;;;;;;;19.54;61.27;101960.66;4784570;29;20754;-38
2021/07/23 08:02:17;;;;;;;9.40;5.43;;;;;;;19.67;60.43;101953.91;4799103;29;20054;-38
2021/07/23 08:04:44;;;;;;;13.03;5.70;;;;;;;19.78;59.54;101952.66;4795352;29;20097;-39
2021/07/23 08:07:11;;;;;;;16.23;6.20;;;;;;;19.83;59.33;101952.97;4811889;29;20089;-38
2021/07/23 08:09:53;;;;;;;13.07;6.63;;;;;;;19.87;60.53;101951.59;4790234;29;20078;-38
2021/07/23 08:12:23;;;;;;;13.95;6.63;;;;;;;19.90;59.46;101957.41;4788416;29;20297;-38
2021/07/23 08:14:49;;;;;;;14.25;6.65;;;;;;;20.00;59.62;101951.81;4798238;29;20127;-38
2021/07/23 08:17:16;;;;;;;13.05;6.78;;;;;;;20.05;58.88;101952.09;4795462;29;20239;-38
2021/07/23 08:19:42;;;;;;;13.52;6.10;;;;;;;20.12;59.04;101946.88;4798995;29;20500;-38
2021/07/23 08:22:09;;;;;;;14.65;6.50;;;;;;;20.29;58.50;101944.88;4804370;29;20165;-38
2021/07/23 08:24:38;;;;;;;15.52;7.35;;;;;;;20.38;58.72;101945.59;4794480;29;20794;-38
2021/07/23 08:27:05;;;;;;;;;;;;;;;20.42;57.58;101944.22;4790101;29;20837;-38
2021/07/23 08:29:31;;;;;;;10.88;6.20;;;;;;;20.42;57.47;101938.88;4798714;29;20012;-39
2021/07/23 08:32:06;;;;;;;14.95;6.97;;;;;;;20.66;58.50;101951.09;4805422;29;20145;-38
2021/07/23 08:34:32;;;;;;;13.32;7.00;;;;;;;20.87;58.03;101937.84;4792233;29;20149;-39
2021/07/23 08:36:59;;;;;;;13.18;6.60;;;;;;;21.00;57.10;101936.34;4808178;29;20142;-39
2021/07/23 08:39:25;;;;;;;14.85;6.22;;;;;;;21.42;56.57;101934.72;4786512;29;20097;-39
2021/07/23 08:41:51;;;;;;;12.07;6.55;;;;;;;21.39;55.89;101938.59;4796948;29;20165;-39
2021/07/23 08:44:18;;;;;;;14.98;6.80;;;;;;;21.49;55.93;101946.31;4791859;29;20059;-39
2021/07/23 08:46:45;;;;;;;16.48;6.80;;;;;;;21.45;55.51;101937.84;4798828;29;20062;-38
2021/07/23 08:49:14;;;;;;;16.15;7.32;;;;;;;21.46;55.83;101944.00;4792438;29;20059;-39
2021/07/23 08:51:40;;;;;;;12.30;7.15;;;;;;;21.54;55.84;101941.22;4789639;29;20081;-39
2021/07/23 08:54:06;;;;;;;13.77;6.55;;;;;;;21.60;55.99;101942.28;4789768;29;20824;-40
2021/07/23 08:56:33;;;;;;;14.38;5.95;;;;;;;21.63;56.04;101937.38;4789363;29;20142;-39
2021/07/23 08:58:59;;;;;;;14.15;6.40;;;;;;;21.63;56.18;101934.72;4795328;29;20159;-39
2021/07/23 09:01:26;;;;;;;14.85;6.47;;;;;;;21.68;56.10;101937.66;4785389;29;20488;-38
2021/07/23 09:03:53;;;;;;;14.35;6.78;;;;;;;21.73;55.93;101935.22;4803718;29;20620;-39
2021/07/23 09:06:22;;;;;;;13.45;6.40;;;;;;;21.73;55.70;101939.72;4788348;29;20094;-39
2021/07/23 09:08:50;;;;;;;13.90;6.05;;;;;;;21.84;54.67;101936.53;4788254;29;20055;-38
2021/07/23 09:11:34;;;;;;;13.30;6.20;;;;;;;22.57;53.37;101938.03;4796534;29;20108;-38
2021/07/23 09:14:14;;;;;;;13.50;6.25;;;;;;;22.61;53.61;101940.09;4794103;29;20094;-38
2021/07/23 09:16:40;;;;;;;11.40;6.22;;;;;;;22.57;53.29;101936.16;4809656;29;20086;-38
2021/07/23 09:19:09;;;;;;;10.95;6.20;;;;;;;22.64;53.45;101934.34;4791829;29;20061;-38
2021/07/23 09:21:39;;;;;;;10.65;5.80;;;;;;;22.69;53.20;101931.88;4798063;29;20055;-38
2021/07/23 09:24:07;;;;;;;11.63;5.65;;;;;;;22.80;53.24;101937.72;4796454;29;20555;-38
2021/07/23 09:26:44;;;;;;;15.43;6.07;;;;;;;22.95;52.42;101924.97;4806532;29;20099;-38
2021/07/23 09:29:12;;;;;;;14.33;5.43;;;;;;;23.52;52.22;101927.34;4788232;29;20460;-38
2021/07/23 09:31:38;;;;;;;9.23;4.28;;;;;;;23.46;50.71;101931.69;4802744;29;20073;-38
2021/07/23 09:34:29;;;;;;;11.23;4.70;;;;;;;23.43;51.12;101929.44;4808507;29;20050;-38
2021/07/23 09:37:24;;;;;;;9.82;5.13;;;;;;;23.40;51.02;101919.13;4794914;29;20057;-38
2021/07/23 09:39:56;;;;;;;13.65;5.13;;;;;;;23.30;51.01;101922.19;4798779;29;20138;-36
2021/07/23 09:42:22;;;;;;;13.93;5.43;;;;;;;23.27;51.28;101906.56;4795584;29;20054;-36
2021/07/23 09:45:00;;;;;;;12.73;5.63;;;;;;;23.16;51.73;101918.66;4797332;29;20489;-36
2021/07/23 09:47:26;;;;;;;12.20;6.03;;;;;;;23.24;51.66;101907.78;4794920;29;20426;-36
2021/07/23 09:49:54;;;;;;;11.00;6.13;;;;;;;23.48;51.86;101910.88;4796620;29;20090;-36
2021/07/23 09:52:21;;;;;;;13.82;6.15;;;;;;;23.49;51.59;101908.00;4796162;29;20150;-37
2021/07/23 09:54:48;;;;;;;13.73;6.20;;;;;;;23.57;51.24;101903.47;4795902;29;20075;-37
2021/07/23 09:57:22;;;;;;;14.52;6.20;;;;;;;23.71;51.28;101896.25;4790058;29;20563;-36
2021/07/23 10:00:01;;;;;;;10.98;4.65;;;;;;;23.74;49.79;101883.28;4792000;29;20498;-36
2021/07/23 10:02:32;;;;;;;13.23;5.68;;;;;;;23.79;50.27;101891.50;4798507;29;20054;-36
2021/07/23 10:05:05;;;;;;;15.93;7.13;;;;;;;24.06;49.46;101891.47;4793552;29;20058;-36
2021/07/23 10:07:59;;;;;;;14.27;7.20;;;;;;;24.03;50.14;101890.03;4802305;29;20062;-37
2021/07/23 10:10:26;;;;;;;16.95;8.23;;;;;;;24.12;50.28;101890.63;4794268;29;20055;-37
2021/07/23 10:12:55;;;;;;;17.90;8.25;;;;;;;24.12;49.61;101879.09;4799141;29;20096;-37
2021/07/23 10:15:21;;;;;;;15.02;7.03;;;;;;;24.18;49.17;101886.28;4797263;29;21656;-38
2021/07/23 10:17:49;;;;;;;17.08;8.02;;;;;;;24.31;50.00;101877.38;4801144;29;20879;-37
2021/07/23 10:20:19;;;;;;;22.83;8.25;;;;;;;24.52;49.42;101876.28;4794322;29;20671;-37
2021/07/23 10:22:53;;;;;;;17.42;8.32;;;;;;;24.43;49.50;101881.03;4800056;29;20139;-37
2021/07/23 10:25:27;;;;;;;14.45;7.45;;;;;;;24.51;49.17;101878.13;4798352;29;20094;-37
2021/07/23 10:27:54;;;;;;;13.38;6.55;;;;;;;24.52;48.54;101873.59;4800096;29;20066;-37
2021/07/23 10:30:31;;;;;;;16.95;8.27;;;;;;;24.55;48.81;101879.34;4803536;29;20493;-37
2021/07/23 10:32:57;;;;;;;13.90;7.40;;;;;;;24.61;48.45;101875.00;4786416;29;20118;-37
2021/07/23 10:35:24;;;;;;;18.10;7.72;;;;;;;24.57;48.02;101876.47;4797794;29;20100;-37
2021/07/23 10:37:55;;;;;;;16.33;7.10;;;;;;;24.63;47.59;101868.38;4792085;29;20051;-37
2021/07/23 10:40:30;;;;;;;12.38;6.45;;;;;;;24.76;47.75;101866.66;4800497;29;20260;-37
2021/07/23 10:42:56;;;;;;;17.10;7.35;;;;;;;24.81;46.83;101862.28;4794965;29;20086;-38
2021/07/23 10:45:39;;;;;;;11.95;6.28;;;;;;;24.91;45.93;101863.66;4801342;29;20172;-38
2021/07/23 10:48:05;;;;;;;15.27;8.05;;;;;;;24.93;46.05;101861.59;4787925;29;20065;-38
2021/07/23 10:50:38;;;;;;;13.43;6.72;;;;;;;24.87;46.02;101857.91;4793819;29;20155;-38
2021/07/23 10:53:31;;;;;;;14.52;7.70;;;;;;;24.83;46.61;101859.38;4793333;29;20798;-38
2021/07/23 10:55:58;;;;;;;18.50;7.88;;;;;;;24.79;46.12;101855.50;4795869;29;20061;-38
2021/07/23 10:58:25;;;;;;;17.60;7.43;;;;;;;25.10;46.93;101856.53;4800917;29;20089;-38
2021/07/23 11:00:56;;;;;;;16.25;7.03;;;;;;;25.01;45.87;101851.44;4793867;29;20060;-38
2021/07/23 11:03:45;;;;;;;16.40;6.97;;;;;;;25.00;45.39;101843.59;4791091;29;20285;-38
2021/07/23 11:06:21;;;;;;;11.27;6.40;;;;;;;25.09;45.97;101842.28;4794924;29;20145;-38
2021/07/23 11:08:52;;;;;;;15.60;7.00;;;;;;;25.48;45.57;101842.19;4805369;29;20769;-38
2021/07/23 11:11:21;;;;;;;15.25;7.28;;;;;;;25.51;43.53;101837.19;4794288;29;20173;-38
2021/07/23 11:13:47;;;;;;;12.75;6.78;;;;;;;25.53;44.78;101836.97;4803165;29;20158;-38
2021/07/23 11:16:16;;;;;;;14.23;7.03;;;;;;;25.90;44.99;101835.13;4799701;29;20059;-38
2021/07/23 11:18:50;;;;;;;12.55;7.03;;;;;;;26.16;43.87;101828.63;4801169;29;20082;-38